Time;durP1;ratioP1;P1;durP2;ratioP2;P2;SDS_P1;SDS_P2;PMS_P1;PMS_P2;Temp;Humidity;BMP_temperature;BMP_pressure;BME280_temperature;BME280_humidity;BME280_pressure;Samples;Min_cycle;Max_cycle;Signal;HPM_P1;HPM_P2
2023/02/14 00:02:45;;;;;;;0.88;0.20;;;1.90;99.30;;;;;;20995519;28;20028;-64
2023/02/14 00:12:47;;;;;;;0.63;0.30;;;1.80;99.00;;;;;;20977432;28;20052;-59
2023/02/14 00:22:49;;;;;;;0.25;0.00;;;2.00;98.10;;;;;;20986371;28;20032;-59
2023/02/14 00:32:50;;;;;;;0.65;0.30;;;1.90;97.70;;;;;;20970934;28;20032;-64
2023/02/14 00:42:52;;;;;;;1.33;0.60;;;2.20;98.40;;;;;;20972993;28;20435;-59
2023/02/14 00:52:57;;;;;;;0.85;0.40;;;2.20;98.70;;;;;;20965618;28;20070;-59
2023/02/14 01:02:59;;;;;;;0.57;0.30;;;2.30;98.80;;;;;;20963791;28;20367;-64
2023/02/14 01:13:00;;;;;;;0.30;0.13;;;2.10;99.40;;;;;;20973507;28;20558;-59
2023/02/14 01:23:02;;;;;;;0.40;0.10;;;2.00;99.10;;;;;;20978457;28;20032;-63
2023/02/14 01:33:03;;;;;;;0.38;0.15;;;2.10;99.30;;;;;;20966350;28;20033;-64
2023/02/14 01:43:07;;;;;;;0.30;0.15;;;2.30;99.70;;;;;;20964157;28;20028;-62
2023/02/14 01:53:15;;;;;;;0.30;0.15;;;2.40;99.20;;;;;;20978808;28;20036;-63
2023/02/14 02:03:19;;;;;;;0.82;0.20;;;2.40;99.50;;;;;;20986804;28;20032;-59
2023/02/14 02:13:22;;;;;;;0.38;0.20;;;2.60;99.90;;;;;;20951931;28;20476;-59
2023/02/14 02:24:12;;;;;;;0.75;0.30;;;2.70;99.80;;;;;;20977177;28;20082;-64
2023/02/14 02:34:50;;;;;;;0.65;0.30;;;2.80;99.20;;;;;;20966660;28;20044;-63
2023/02/14 02:45:29;;;;;;;2.15;0.40;;;2.70;99.90;;;;;;20973774;28;20048;-59
2023/02/14 02:56:44;;;;;;;2.40;0.35;;;2.80;99.00;;;;;;20975587;28;20036;-59
2023/02/14 03:05:56;;;;;;;0.68;0.20;;;3.10;97.80;;;;;;20988117;28;20063;-59
2023/02/14 03:16:26;;;;;;;1.13;0.30;;;3.20;97.40;;;;;;20994116;28;20032;-59
2023/02/14 03:26:42;;;;;;;1.13;0.40;;;3.10;98.70;;;;;;20968462;28;20165;-59
2023/02/14 03:36:58;;;;;;;1.48;0.40;;;3.00;98.70;;;;;;20966126;28;20033;-64
2023/02/14 03:47:05;;;;;;;0.93;0.30;;;2.70;99.10;;;;;;20994759;28;20536;-59
2023/02/14 03:57:27;;;;;;;1.20;0.30;;;2.60;98.80;;;;;;20987439;28;20036;-63
2023/02/14 04:07:29;;;;;;;0.73;0.30;;;2.50;99.50;;;;;;20951251;28;20045;-59
2023/02/14 04:27:51;;;;;;;1.10;0.43;;;2.70;98.50;;;;;;20985269;28;20036;-64
2023/02/14 04:37:53;;;;;;;2.10;0.82;;;3.30;96.50;;;;;;20964812;28;20041;-63
2023/02/14 04:47:54;;;;;;;1.10;0.60;;;3.80;95.80;;;;;;20991844;28;20393;-63
2023/02/14 04:57:56;;;;;;;1.90;0.70;;;3.90;96.00;;;;;;20981496;28;20085;-63
2023/02/14 05:07:58;;;;;;;1.30;0.60;;;3.80;95.90;;;;;;20961748;28;20486;-59
2023/02/14 05:18:01;;;;;;;1.30;0.55;;;3.30;97.10;;;;;;20985156;28;20094;-62
2023/02/14 05:28:03;;;;;;;1.65;0.57;;;3.60;96.20;;;;;;20978926;28;20028;-59
2023/02/14 05:38:04;;;;;;;1.90;0.57;;;3.40;97.10;;;;;;20968147;28;20037;-63
2023/02/14 05:48:06;;;;;;;1.23;0.50;;;3.00;97.40;;;;;;20986057;28;20048;-59
2023/02/14 05:58:09;;;;;;;1.77;0.80;;;3.50;95.50;;;;;;20961901;28;20414;-59
2023/02/14 06:08:10;;;;;;;0.60;0.38;;;4.60;93.70;;;;;;20937121;28;20041;-63
2023/02/14 06:18:12;;;;;;;2.28;0.40;;;4.30;93.20;;;;;;20938594;28;20611;-63
2023/02/14 06:28:14;;;;;;;1.20;0.28;;;5.10;91.80;;;;;;20966909;28;20385;-63
2023/02/14 06:38:15;;;;;;;1.17;0.40;;;4.70;92.30;;;;;;20920507;28;20441;-59
2023/02/14 06:48:17;;;;;;;1.25;0.30;;;4.40;93.10;;;;;;20966219;28;20033;-63
2023/02/14 06:58:19;;;;;;;0.90;0.30;;;4.40;92.20;;;;;;20974286;28;20366;-59
2023/02/14 07:08:21;;;;;;;0.25;0.10;;;5.50;89.40;;;;;;20967327;28;20036;-60
2023/02/14 07:18:23;;;;;;;0.43;0.20;;;6.00;87.00;;;;;;20983784;28;20033;-60
2023/02/14 07:28:24;;;;;;;0.15;0.10;;;6.20;89.10;;;;;;20967055;28;20450;-59
2023/02/14 07:38:29;;;;;;;0.75;0.20;;;6.50;81.90;;;;;;20941888;28;20063;-60
2023/02/14 07:48:30;;;;;;;0.63;0.20;;;7.30;80.50;;;;;;20979937;28;20043;-60
2023/02/14 07:58:32;;;;;;;0.60;0.20;;;8.10;78.90;;;;;;20986693;28;20024;-60
2023/02/14 08:08:33;;;;;;;0.30;0.20;;;8.70;75.60;;;;;;20978300;28;20040;-60
2023/02/14 08:18:38;;;;;;;0.40;0.00;;;9.00;79.30;;;;;;20994649;28;20036;-58
2023/02/14 08:28:40;;;;;;;0.10;0.10;;;9.70;76.00;;;;;;20946508;28;20040;-59
2023/02/14 08:38:43;;;;;;;0.60;0.10;;;10.30;70.80;;;;;;20973959;28;20041;-59
2023/02/14 08:48:44;;;;;;;0.20;0.03;;;11.20;68.00;;;;;;20991815;28;20029;-60
2023/02/14 08:58:46;;;;;;;0.13;0.10;;;12.10;65.20;;;;;;20983522;28;20110;-59
2023/02/14 09:08:53;;;;;;;1.15;0.40;;;12.30;62.30;;;;;;20963425;28;20048;-59
2023/02/14 09:18:55;;;;;;;1.95;0.95;;;13.00;64.70;;;;;;20989921;28;20044;-60
2023/02/14 09:28:57;;;;;;;1.23;0.85;;;13.70;67.50;;;;;;20980599;28;20086;-59
2023/02/14 09:38:58;;;;;;;1.30;0.80;;;14.30;65.50;;;;;;20961512;28;20047;-59
2023/02/14 09:49:01;;;;;;;0.30;0.20;;;14.50;66.10;;;;;;20987008;28;20397;-59
2023/02/14 09:59:22;;;;;;;2.17;0.90;;;15.00;59.00;;;;;;20979472;28;20036;-58
2023/02/14 10:09:40;;;;;;;1.38;0.95;;;15.20;63.50;;;;;;20953236;28;20048;-59
2023/02/14 10:19:49;;;;;;;1.17;0.85;;;15.70;62.20;;;;;;20984401;28;20393;-59
2023/02/14 10:29:50;;;;;;;1.35;0.90;;;16.40;62.20;;;;;;20980093;28;20519;-59
2023/02/14 10:40:12;;;;;;;1.85;0.95;;;16.60;60.60;;;;;;20966359;28;20040;-59
2023/02/14 10:50:51;;;;;;;1.10;0.70;;;16.70;62.90;;;;;;20978861;28;20029;-58
2023/02/14 11:00:52;;;;;;;;;;;17.10;59.60;;;;;;20968712;28;20062;-59
2023/02/14 11:11:13;;;;;;;1.60;0.80;;;17.20;58.60;;;;;;20982707;28;19916;-59
2023/02/14 11:21:23;;;;;;;1.42;0.77;;;17.30;59.20;;;;;;20990414;28;20028;-59
2023/02/14 11:31:36;;;;;;;1.40;0.80;;;17.60;57.30;;;;;;20959380;28;20032;-59
2023/02/14 11:41:54;;;;;;;1.73;0.90;;;17.60;56.40;;;;;;20979400;28;20125;-59
2023/02/14 11:52:08;;;;;;;2.05;0.85;;;17.70;56.70;;;;;;20988107;28;20029;-59
2023/02/14 12:02:38;;;;;;;1.60;1.27;;;17.70;59.20;;;;;;20974313;28;20424;-59
2023/02/14 12:12:47;;;;;;;2.30;1.60;;;17.50;58.80;;;;;;20970225;28;20052;-59
2023/02/14 12:22:56;;;;;;;1.67;1.13;;;17.30;56.30;;;;;;20985728;28;20028;-59
2023/02/14 12:32:59;;;;;;;1.75;0.70;;;17.20;55.70;;;;;;20973404;28;20691;-59
2023/02/14 12:43:32;;;;;;;4.45;2.30;;;17.50;52.50;;;;;;20969161;28;20587;-59
2023/02/14 12:54:03;;;;;;;2.60;1.77;;;17.40;57.70;;;;;;20766895;28;20065;-58
2023/02/14 13:04:46;;;;;;;2.72;1.80;;;17.40;55.70;;;;;;20713757;28;20041;-58
2023/02/14 13:15:12;;;;;;;3.35;1.77;;;17.30;55.20;;;;;;20798420;28;20528;-59
2023/02/14 13:25:30;;;;;;;5.18;2.25;;;17.20;53.30;;;;;;20854374;28;20052;-59
2023/02/14 13:35:33;;;;;;;5.40;2.63;;;17.10;56.40;;;;;;20978372;28;20490;-60
2023/02/14 13:45:36;;;;;;;3.83;2.05;;;16.90;56.90;;;;;;20979585;28;20024;-59
2023/02/14 13:55:44;;;;;;;3.95;2.50;;;16.10;54.60;;;;;;20961918;28;20064;-60
2023/02/14 14:05:57;;;;;;;4.78;2.70;;;15.40;55.70;;;;;;20986257;28;20048;-59
2023/02/14 14:16:25;;;;;;;6.82;2.20;;;14.60;54.80;;;;;;20986219;28;20432;-62
2023/02/14 14:26:34;;;;;;;3.78;1.90;;;13.90;56.40;;;;;;20956825;28;20037;-62
2023/02/14 14:36:36;;;;;;;2.75;1.30;;;13.50;54.80;;;;;;20966411;28;20086;-62
2023/02/14 14:46:37;;;;;;;3.05;1.85;;;13.30;51.10;;;;;;21001766;28;20059;-64
2023/02/14 14:56:55;;;;;;;2.20;1.17;;;12.90;54.10;;;;;;20992552;28;20025;-64
2023/02/14 15:07:36;;;;;;;2.08;1.10;;;12.50;49.80;;;;;;20957381;28;20555;-63
2023/02/14 15:17:40;;;;;;;4.00;1.10;;;12.40;53.50;;;;;;21000252;28;20032;-64
2023/02/14 15:27:42;;;;;;;1.40;0.60;;;12.10;56.90;;;;;;20988806;28;20032;-60
2023/02/14 15:37:45;;;;;;;2.83;0.70;;;11.90;60.80;;;;;;20954602;28;20514;-63
2023/02/14 15:47:52;;;;;;;0.95;0.38;;;11.10;62.80;;;;;;20996209;28;20473;-63
2023/02/14 15:57:58;;;;;;;1.13;0.50;;;9.30;72.30;;;;;;20987747;28;20036;-63
2023/02/14 16:08:03;;;;;;;1.50;0.60;;;8.00;75.90;;;;;;20956509;28;20045;-59
2023/02/14 16:18:18;;;;;;;1.60;0.70;;;7.40;77.60;;;;;;20965017;28;20036;-63
2023/02/14 16:28:20;;;;;;;1.17;0.60;;;7.00;78.40;;;;;;20953554;28;20102;-62
2023/02/14 16:38:22;;;;;;;1.42;0.50;;;6.70;78.90;;;;;;20937493;28;20546;-59
2023/02/14 16:48:23;;;;;;;0.80;0.40;;;6.40;76.20;;;;;;20972951;28;20485;-59
2023/02/14 16:58:33;;;;;;;0.65;0.25;;;6.20;76.40;;;;;;20981165;28;20085;-63
2023/02/14 17:08:36;;;;;;;0.80;0.30;;;6.10;75.20;;;;;;20974296;28;20094;-59
2023/02/14 17:18:40;;;;;;;2.17;0.30;;;5.90;74.10;;;;;;20989720;28;20040;-59
2023/02/14 17:28:42;;;;;;;0.70;0.30;;;5.80;74.20;;;;;;20941802;28;20041;-59
2023/02/14 17:38:44;;;;;;;0.15;0.10;;;5.70;75.10;;;;;;20932209;28;20087;-59
2023/02/14 17:48:47;;;;;;;0.50;0.10;;;5.60;75.30;;;;;;20962781;28;20308;-59
2023/02/14 17:58:51;;;;;;;1.20;0.20;;;5.50;76.70;;;;;;20945406;28;20074;-59
2023/02/14 18:08:55;;;;;;;0.28;0.10;;;5.40;76.10;;;;;;20969387;28;20053;-58
2023/02/14 18:19:00;;;;;;;0.47;0.10;;;5.40;77.80;;;;;;20986377;28;20043;-59
2023/02/14 18:29:05;;;;;;;0.30;0.10;;;5.30;77.50;;;;;;20953718;28;20432;-59
2023/02/14 18:39:08;;;;;;;0.30;0.17;;;5.40;75.40;;;;;;20966607;28;20033;-58
2023/02/14 18:49:12;;;;;;;0.30;0.10;;;5.20;76.50;;;;;;20985182;28;20070;-59
2023/02/14 18:59:13;;;;;;;0.20;0.10;;;5.20;75.70;;;;;;20976039;28;20032;-59
2023/02/14 19:09:16;;;;;;;0.77;0.20;;;5.10;77.40;;;;;;20940290;28;20102;-62
2023/02/14 19:19:18;;;;;;;0.65;0.20;;;5.20;76.10;;;;;;20989577;28;20082;-63
2023/02/14 19:29:20;;;;;;;0.20;0.10;;;5.00;78.30;;;;;;20989842;28;20024;-59
2023/02/14 19:39:23;;;;;;;0.47;0.10;;;5.00;77.10;;;;;;20954569;28;20033;-62
2023/02/14 19:49:27;;;;;;;0.38;0.10;;;5.00;76.50;;;;;;20997078;28;20028;-59
2023/02/14 19:59:31;;;;;;;0.00;0.00;;;5.00;77.00;;;;;;20987801;28;20040;-62
2023/02/14 20:09:33;;;;;;;0.57;0.10;;;5.00;76.50;;;;;;20961945;28;20059;-61
2023/02/14 20:19:35;;;;;;;0.28;0.10;;;4.80;75.40;;;;;;20993934;28;20032;-62
2023/02/14 20:29:40;;;;;;;0.30;0.10;;;4.90;75.40;;;;;;20974790;28;20386;-57
2023/02/14 20:39:42;;;;;;;0.38;0.13;;;4.90;74.40;;;;;;20971614;28;20028;-58
2023/02/14 20:49:43;;;;;;;2.05;0.20;;;5.10;73.70;;;;;;20990523;28;20028;-58
2023/02/14 20:59:45;;;;;;;0.40;0.20;;;5.00;73.90;;;;;;20967996;28;20540;-58
2023/02/14 21:09:47;;;;;;;2.47;0.50;;;4.70;74.80;;;;;;20944670;28;20082;-58
2023/02/14 21:19:49;;;;;;;0.80;0.20;;;4.70;73.90;;;;;;20966249;28;20094;-59
2023/02/14 21:29:50;;;;;;;0.77;0.20;;;4.70;74.30;;;;;;20944583;28;20504;-60
2023/02/14 21:39:52;;;;;;;0.47;0.10;;;4.90;74.50;;;;;;20985448;28;20024;-58
2023/02/14 22:00:16;;;;;;;0.40;0.20;;;4.90;72.10;;;;;;20929426;28;20568;-59
2023/02/14 22:10:18;;;;;;;0.90;0.20;;;4.70;70.50;;;;;;20931709;28;20047;-57
2023/02/14 22:20:19;;;;;;;0.70;0.30;;;4.60;70.90;;;;;;20979361;28;20086;-57
2023/02/14 22:30:22;;;;;;;0.20;0.10;;;4.80;72.20;;;;;;20960383;28;20497;-58
2023/02/14 22:40:23;;;;;;;1.02;0.20;;;4.70;69.70;;;;;;20940703;28;20474;-60
2023/02/14 22:50:25;;;;;;;1.95;0.20;;;4.90;68.90;;;;;;20979468;28;20059;-60
2023/02/14 23:00:27;;;;;;;3.05;0.25;;;4.80;70.10;;;;;;20962735;28;20032;-61
2023/02/14 23:10:28;;;;;;;0.70;0.20;;;4.40;70.40;;;;;;20959193;28;20038;-58
2023/02/14 23:30:50;;;;;;;0.30;0.13;;;4.40;70.40;;;;;;20962222;28;20090;-50
2023/02/14 23:51:12;;;;;;;0.57;0.20;;;4.50;70.80;;;;;;20982882;28;20060;-55
